createdAt,value
2022-12-26T00:01:12.208Z,10.80
2022-12-26T00:03:40.325Z,10.90
2022-12-26T00:06:17.624Z,10.90
2022-12-26T00:08:48.110Z,10.90
2022-12-26T00:11:16.433Z,10.90
2022-12-26T00:13:45.136Z,10.90
2022-12-26T00:16:15.272Z,10.90
2022-12-26T00:18:43.753Z,10.80
2022-12-26T00:21:14.703Z,10.80
2022-12-26T00:23:43.192Z,10.80
2022-12-26T00:26:12.729Z,10.70
2022-12-26T00:28:40.782Z,10.70
2022-12-26T00:31:10.704Z,10.70
2022-12-26T00:33:39.500Z,10.70
2022-12-26T00:36:10.222Z,10.70
2022-12-26T00:38:40.920Z,10.60
2022-12-26T00:41:10.992Z,10.70
2022-12-26T00:43:39.321Z,10.70
2022-12-26T00:46:07.824Z,10.60
2022-12-26T00:48:36.113Z,10.60
2022-12-26T00:51:05.069Z,10.60
2022-12-26T00:53:34.132Z,10.60
2022-12-26T00:56:03.770Z,10.60
2022-12-26T00:58:31.796Z,10.60
2022-12-26T01:01:07.406Z,10.60
2022-12-26T01:03:35.554Z,10.60
2022-12-26T01:06:05.079Z,10.60
2022-12-26T01:08:33.248Z,10.60
2022-12-26T01:11:06.809Z,10.60
2022-12-26T01:13:35.266Z,10.60
2022-12-26T01:16:03.360Z,10.60
2022-12-26T01:18:31.790Z,10.60
2022-12-26T01:21:01.039Z,10.60
2022-12-26T01:23:29.432Z,10.60
2022-12-26T01:26:16.349Z,10.60
2022-12-26T01:28:46.712Z,10.60
2022-12-26T01:31:14.724Z,10.60
2022-12-26T01:33:42.792Z,10.60
2022-12-26T01:36:10.829Z,10.60
2022-12-26T01:38:38.980Z,10.50
2022-12-26T01:41:24.176Z,10.60
2022-12-26T01:43:58.352Z,10.60
2022-12-26T01:46:32.742Z,10.60
2022-12-26T01:49:06.520Z,10.60
2022-12-26T01:51:40.036Z,10.60
2022-12-26T01:54:40.322Z,10.60
2022-12-26T01:57:00.794Z,10.50
2022-12-26T01:59:33.779Z,10.50
2022-12-26T02:02:02.365Z,10.50
2022-12-26T02:04:52.937Z,10.50
2022-12-26T02:07:21.136Z,10.50
2022-12-26T02:09:49.244Z,10.50
2022-12-26T02:12:36.386Z,10.50
2022-12-26T02:15:11.847Z,10.50
2022-12-26T02:17:41.245Z,10.50
2022-12-26T02:20:18.463Z,10.40
2022-12-26T02:23:20.760Z,10.40
2022-12-26T02:26:24.971Z,10.50
2022-12-26T02:29:27.329Z,10.50
2022-12-26T02:32:04.212Z,10.40
2022-12-26T02:34:40.621Z,10.40
2022-12-26T02:37:23.840Z,10.40
2022-12-26T02:40:09.745Z,10.50
2022-12-26T02:42:47.705Z,10.50
2022-12-26T02:45:42.007Z,10.50
2022-12-26T02:48:17.114Z,10.50
2022-12-26T02:51:13.177Z,10.40
2022-12-26T02:54:09.113Z,10.40
2022-12-26T02:57:00.511Z,10.40
2022-12-26T02:59:57.335Z,10.40
2022-12-26T03:02:49.880Z,10.40
2022-12-26T03:05:43.694Z,10.30
2022-12-26T03:08:34.652Z,10.30
2022-12-26T03:11:20.641Z,10.20
2022-12-26T03:13:50.422Z,10.20
2022-12-26T03:16:39.346Z,10.30
2022-12-26T03:19:11.028Z,10.20
2022-12-26T03:21:44.252Z,10.20
2022-12-26T03:24:15.399Z,10.20
2022-12-26T03:26:49.881Z,10.30
2022-12-26T03:29:37.958Z,10.20
2022-12-26T03:32:09.477Z,10.20
2022-12-26T03:34:42.631Z,10.20
2022-12-26T03:37:49.306Z,10.20
2022-12-26T03:40:46.421Z,10.20
2022-12-26T03:43:43.083Z,10.20
2022-12-26T03:46:41.270Z,10.20
2022-12-26T03:49:31.981Z,10.20
2022-12-26T03:52:20.941Z,10.20
2022-12-26T03:55:13.123Z,10.10
2022-12-26T03:58:07.240Z,10.10
2022-12-26T04:00:54.881Z,10.00
2022-12-26T04:03:42.062Z,10.00
2022-12-26T04:06:35.022Z,9.90
2022-12-26T04:09:26.558Z,9.90
2022-12-26T04:12:15.976Z,9.80
2022-12-26T04:15:07.704Z,9.80
2022-12-26T04:17:58.828Z,9.80
2022-12-26T04:20:31.371Z,9.80
2022-12-26T04:23:22.154Z,9.80
2022-12-26T04:26:13.391Z,9.70
2022-12-26T04:29:00.903Z,9.80
2022-12-26T04:31:49.530Z,9.70
2022-12-26T04:34:40.495Z,9.60
2022-12-26T04:37:29.147Z,9.60
2022-12-26T04:40:16.390Z,9.60
2022-12-26T04:43:47.225Z,9.70
2022-12-26T04:45:54.092Z,9.70
2022-12-26T04:48:44.842Z,9.80
2022-12-26T04:51:12.821Z,9.70
2022-12-26T04:53:40.912Z,9.80
2022-12-26T04:56:10.452Z,9.80
2022-12-26T04:58:38.413Z,9.80
2022-12-26T05:01:22.442Z,9.80
2022-12-26T05:04:07.770Z,9.90
2022-12-26T05:06:53.504Z,9.90
2022-12-26T05:09:37.280Z,9.90
2022-12-26T05:12:07.634Z,9.90
2022-12-26T05:14:36.752Z,9.90
2022-12-26T05:17:24.794Z,10.00
2022-12-26T05:20:10.732Z,9.90
2022-12-26T05:23:05.813Z,9.90
2022-12-26T05:25:53.745Z,9.90
2022-12-26T05:28:39.739Z,10.00
2022-12-26T05:31:08.227Z,10.00
2022-12-26T05:33:55.297Z,10.00
2022-12-26T05:36:25.714Z,10.00
2022-12-26T05:38:56.054Z,10.00
2022-12-26T05:41:24.568Z,10.00
2022-12-26T05:43:52.468Z,10.00
2022-12-26T05:46:20.622Z,10.00
2022-12-26T05:48:49.955Z,10.00
2022-12-26T05:51:17.990Z,10.00
2022-12-26T05:53:46.024Z,10.00
2022-12-26T05:56:16.810Z,9.90
2022-12-26T05:58:44.989Z,9.90
2022-12-26T06:01:15.126Z,9.90
2022-12-26T06:03:44.526Z,9.90
2022-12-26T06:06:14.255Z,10.00
2022-12-26T06:08:42.280Z,10.00
2022-12-26T06:11:12.454Z,10.00
2022-12-26T06:13:41.159Z,9.90
2022-12-26T06:16:10.965Z,10.00
2022-12-26T06:18:39.586Z,10.00
2022-12-26T06:21:09.298Z,10.00
2022-12-26T06:23:39.489Z,10.00
2022-12-26T06:26:10.202Z,10.00
2022-12-26T06:28:40.172Z,10.10
2022-12-26T06:31:10.526Z,10.10
2022-12-26T06:33:39.042Z,10.20
2022-12-26T06:36:08.855Z,10.20
2022-12-26T06:38:38.872Z,10.20
2022-12-26T06:41:07.648Z,10.20
2022-12-26T06:43:36.055Z,10.20
2022-12-26T06:46:06.948Z,10.20
2022-12-26T06:48:39.233Z,10.10
2022-12-26T06:51:08.351Z,10.10
2022-12-26T06:53:38.338Z,10.10
2022-12-26T06:56:07.733Z,10.10
2022-12-26T06:58:35.897Z,10.10
2022-12-26T07:01:08.139Z,10.10
2022-12-26T07:03:36.463Z,10.30
2022-12-26T07:06:06.004Z,10.20
2022-12-26T07:08:34.105Z,10.20
2022-12-26T07:11:03.533Z,10.10
2022-12-26T07:13:31.757Z,10.10
2022-12-26T07:16:01.025Z,10.10
2022-12-26T07:18:29.035Z,10.20
2022-12-26T07:20:57.001Z,10.20
2022-12-26T07:23:24.932Z,10.20
2022-12-26T07:25:52.873Z,10.10
2022-12-26T07:28:22.182Z,10.10
2022-12-26T07:30:51.315Z,10.10
2022-12-26T07:33:19.469Z,10.20
2022-12-26T07:35:47.630Z,10.20
2022-12-26T07:38:15.704Z,10.30
2022-12-26T07:40:43.683Z,10.20
2022-12-26T07:43:11.788Z,10.20
2022-12-26T07:45:45.529Z,10.30
2022-12-26T07:48:14.017Z,10.30
2022-12-26T07:50:41.999Z,10.30
2022-12-26T07:53:10.044Z,10.40
2022-12-26T07:55:37.989Z,10.40
2022-12-26T07:58:05.974Z,10.30
2022-12-26T08:00:33.967Z,10.30
2022-12-26T08:03:07.859Z,10.20
2022-12-26T08:05:36.522Z,10.20
2022-12-26T08:08:04.792Z,10.30
2022-12-26T08:10:32.745Z,10.40
2022-12-26T08:13:00.734Z,10.40
2022-12-26T08:15:28.761Z,10.40
2022-12-26T08:17:56.729Z,10.40
2022-12-26T08:20:26.198Z,10.30
2022-12-26T08:25:23.011Z,10.20
2022-12-26T08:27:51.039Z,10.20
2022-12-26T08:30:19.128Z,10.20
2022-12-26T08:32:47.312Z,10.10
2022-12-26T08:35:15.343Z,10.00
2022-12-26T08:37:44.657Z,10.00
2022-12-26T08:40:15.528Z,10.10
2022-12-26T08:43:11.885Z,10.10
2022-12-26T08:45:34.879Z,10.20
2022-12-26T08:48:03.931Z,10.30
2022-12-26T08:50:34.303Z,10.30
2022-12-26T08:53:07.299Z,10.40
2022-12-26T08:55:35.257Z,10.30
2022-12-26T08:58:03.219Z,10.30
2022-12-26T09:00:31.255Z,10.30
2022-12-26T09:02:59.225Z,10.40
2022-12-26T09:05:27.238Z,10.40
2022-12-26T09:07:55.248Z,10.40
2022-12-26T09:10:24.852Z,10.40
2022-12-26T09:12:53.017Z,10.40
2022-12-26T09:15:21.028Z,10.50
2022-12-26T09:17:49.018Z,10.70
2022-12-26T09:20:17.274Z,10.70
2022-12-26T09:22:51.231Z,10.70
2022-12-26T09:25:19.827Z,10.70
2022-12-26T09:27:54.222Z,11.00
2022-12-26T09:30:26.677Z,11.00
2022-12-26T09:32:55.321Z,11.10
2022-12-26T09:35:23.254Z,11.20
2022-12-26T09:37:51.218Z,11.40
2022-12-26T09:40:23.870Z,11.30
2022-12-26T09:43:02.925Z,11.60
2022-12-26T09:45:44.495Z,11.20
2022-12-26T09:48:19.477Z,11.10
2022-12-26T09:50:51.620Z,10.90
2022-12-26T09:53:23.386Z,10.90
2022-12-26T09:55:55.096Z,11.40
2022-12-26T09:58:28.289Z,11.80
2022-12-26T10:01:02.721Z,11.90
2022-12-26T10:03:31.427Z,11.80
2022-12-26T10:06:13.785Z,11.90
2022-12-26T10:09:02.071Z,12.10
2022-12-26T10:11:43.242Z,11.80
2022-12-26T10:14:21.600Z,11.80
2022-12-26T10:16:55.914Z,11.70
2022-12-26T10:19:44.791Z,11.60
2022-12-26T10:22:33.844Z,12.10
2022-12-26T10:25:04.041Z,12.90
2022-12-26T10:27:38.817Z,13.30
2022-12-26T10:30:14.750Z,13.90
2022-12-26T10:32:47.098Z,13.40
2022-12-26T10:35:35.985Z,12.90
2022-12-26T10:38:11.752Z,12.60
2022-12-26T10:40:43.454Z,14.00
2022-12-26T10:43:23.470Z,14.80
2022-12-26T10:46:11.188Z,15.10
2022-12-26T10:48:39.171Z,13.90
2022-12-26T10:51:07.345Z,13.00
2022-12-26T10:53:44.018Z,14.10
2022-12-26T10:56:16.455Z,13.30
2022-12-26T10:58:47.186Z,12.70
2022-12-26T11:01:34.735Z,12.20
2022-12-26T11:04:05.093Z,11.90
2022-12-26T11:06:35.196Z,11.90
2022-12-26T11:09:03.204Z,11.80
2022-12-26T11:11:46.582Z,13.50
2022-12-26T11:14:33.789Z,13.50
2022-12-26T11:17:07.012Z,13.40
2022-12-26T11:19:36.791Z,13.10
2022-12-26T11:22:26.158Z,12.60
2022-12-26T11:25:12.446Z,12.60
2022-12-26T11:27:42.615Z,12.10
2022-12-26T11:30:18.877Z,11.90
2022-12-26T11:32:50.599Z,11.90
2022-12-26T11:35:22.124Z,11.70
2022-12-26T11:37:54.266Z,11.50
2022-12-26T11:40:25.216Z,11.60
2022-12-26T11:42:56.947Z,11.50
2022-12-26T11:45:29.963Z,11.50
2022-12-26T11:48:02.481Z,11.50
2022-12-26T11:50:31.836Z,11.60
2022-12-26T11:53:08.021Z,11.60
2022-12-26T11:55:39.339Z,12.30
2022-12-26T11:58:19.239Z,12.70
2022-12-26T12:01:10.678Z,12.20
2022-12-26T12:03:48.873Z,12.40
2022-12-26T12:06:35.322Z,12.10
2022-12-26T12:09:14.654Z,11.60
2022-12-26T12:11:48.380Z,11.50
2022-12-26T12:14:31.585Z,11.30
2022-12-26T12:17:07.666Z,11.30
2022-12-26T12:19:47.624Z,11.20
2022-12-26T12:22:33.377Z,11.20
2022-12-26T12:25:44.779Z,11.20
2022-12-26T12:28:38.368Z,11.10
2022-12-26T12:31:15.429Z,11.10
2022-12-26T12:33:51.347Z,11.10
2022-12-26T12:36:29.732Z,11.20
2022-12-26T12:39:03.273Z,11.30
2022-12-26T12:42:07.293Z,11.20
2022-12-26T12:44:56.535Z,11.00
2022-12-26T12:47:37.686Z,10.50
2022-12-26T12:50:15.283Z,10.20
2022-12-26T12:52:55.275Z,10.10
2022-12-26T12:55:44.140Z,10.00
2022-12-26T12:58:23.214Z,10.00
2022-12-26T13:00:56.118Z,9.90
2022-12-26T13:03:30.132Z,10.00
2022-12-26T13:06:06.175Z,9.80
2022-12-26T13:08:39.984Z,9.80
2022-12-26T13:11:11.870Z,9.90
2022-12-26T13:13:48.520Z,9.90
2022-12-26T13:16:23.654Z,10.00
2022-12-26T13:18:54.642Z,10.00
2022-12-26T13:21:23.671Z,9.90
2022-12-26T13:24:15.308Z,9.90
2022-12-26T13:26:49.555Z,9.90
2022-12-26T13:29:21.630Z,9.80
2022-12-26T13:31:49.721Z,9.90
2022-12-26T13:34:19.641Z,9.90
2022-12-26T13:36:49.107Z,9.80
2022-12-26T13:39:39.046Z,9.80
2022-12-26T13:42:42.148Z,9.80
2022-12-26T13:45:47.390Z,9.70
2022-12-26T13:48:56.576Z,9.60
2022-12-26T13:51:53.051Z,9.70
2022-12-26T13:54:23.162Z,9.70
2022-12-26T13:57:29.968Z,9.70
2022-12-26T14:00:10.687Z,9.60
2022-12-26T14:03:38.186Z,9.50
2022-12-26T14:06:42.283Z,9.50
2022-12-26T14:09:33.910Z,9.40
2022-12-26T14:12:36.222Z,9.20
2022-12-26T14:15:18.511Z,9.20
2022-12-26T14:17:57.005Z,9.20
2022-12-26T14:20:40.209Z,9.10
2022-12-26T14:23:33.449Z,9.10
2022-12-26T14:26:06.937Z,9.00
2022-12-26T14:28:51.258Z,9.00
2022-12-26T14:31:28.310Z,9.10
2022-12-26T14:34:06.948Z,9.00
2022-12-26T14:36:47.114Z,9.10
2022-12-26T14:39:26.483Z,9.00
2022-12-26T14:42:35.674Z,9.00
2022-12-26T14:45:06.227Z,8.90
2022-12-26T14:47:42.901Z,8.90
2022-12-26T14:50:36.787Z,8.80
2022-12-26T14:53:30.656Z,8.70
2022-12-26T14:55:59.969Z,8.70
2022-12-26T14:58:43.742Z,8.70
2022-12-26T15:01:49.183Z,8.70
2022-12-26T15:04:43.310Z,8.50
2022-12-26T15:07:37.782Z,8.50
2022-12-26T15:10:27.119Z,8.50
2022-12-26T15:13:30.415Z,8.40
2022-12-26T15:16:33.414Z,8.30
2022-12-26T15:19:42.330Z,8.20
2022-12-26T15:22:44.195Z,8.10
2022-12-26T15:25:54.968Z,8.10
2022-12-26T15:29:05.864Z,8.00
2022-12-26T15:31:54.403Z,8.00
2022-12-26T15:34:41.594Z,7.90
2022-12-26T15:37:19.059Z,7.90
2022-12-26T15:39:52.058Z,7.80
2022-12-26T15:42:39.618Z,7.80
2022-12-26T15:45:28.124Z,7.70
2022-12-26T15:48:03.182Z,7.60
2022-12-26T15:50:40.399Z,7.60
2022-12-26T15:53:21.593Z,7.50
2022-12-26T15:56:25.312Z,7.50
2022-12-26T15:59:09.501Z,7.60
2022-12-26T16:01:41.040Z,7.50
2022-12-26T16:04:16.922Z,7.50
2022-12-26T16:07:07.013Z,7.40
2022-12-26T16:09:44.342Z,7.40
2022-12-26T16:12:25.731Z,7.30
2022-12-26T16:15:03.431Z,7.20
2022-12-26T16:17:31.831Z,7.00
2022-12-26T16:19:59.868Z,6.90
2022-12-26T16:22:44.406Z,6.80
2022-12-26T16:25:14.963Z,6.70
2022-12-26T16:27:44.352Z,6.60
2022-12-26T16:30:17.347Z,6.50
2022-12-26T16:32:46.985Z,6.50
2022-12-26T16:35:21.505Z,6.40
2022-12-26T16:37:52.939Z,6.40
2022-12-26T16:40:28.669Z,6.30
2022-12-26T16:43:00.201Z,6.20
2022-12-26T16:45:31.145Z,6.10
2022-12-26T16:47:59.727Z,6.10
2022-12-26T16:50:29.690Z,5.90
2022-12-26T16:53:14.922Z,5.90
2022-12-26T16:55:47.335Z,5.80
2022-12-26T16:58:23.813Z,5.70
2022-12-26T17:01:03.274Z,5.70
2022-12-26T17:03:38.026Z,5.70
2022-12-26T17:06:11.606Z,5.70
2022-12-26T17:08:45.953Z,5.50
2022-12-26T17:11:14.642Z,5.50
2022-12-26T17:13:50.875Z,5.40
2022-12-26T17:16:19.000Z,5.30
2022-12-26T17:18:49.578Z,5.30
2022-12-26T17:21:21.229Z,5.30
2022-12-26T17:24:11.199Z,5.10
2022-12-26T17:26:40.691Z,5.20
2022-12-26T17:29:48.323Z,5.10
2022-12-26T17:32:21.800Z,5.10
2022-12-26T17:34:50.040Z,5.10
2022-12-26T17:37:23.485Z,5.10
2022-12-26T17:39:57.799Z,4.90
2022-12-26T17:42:29.171Z,5.00
2022-12-26T17:44:59.593Z,4.90
2022-12-26T17:47:29.799Z,4.90
2022-12-26T17:49:58.205Z,4.80
2022-12-26T17:52:29.275Z,4.80
2022-12-26T17:54:58.738Z,4.80
2022-12-26T17:57:29.284Z,4.70
2022-12-26T17:59:59.297Z,4.80
2022-12-26T18:02:27.406Z,4.80
2022-12-26T18:04:55.926Z,4.70
2022-12-26T18:07:30.866Z,4.70
2022-12-26T18:10:00.220Z,4.70
2022-12-26T18:12:28.281Z,4.70
2022-12-26T18:15:02.169Z,4.70
2022-12-26T18:17:33.654Z,4.60
2022-12-26T18:20:01.890Z,4.50
2022-12-26T18:22:30.079Z,4.60
2022-12-26T18:24:59.549Z,4.50
2022-12-26T18:27:31.439Z,4.50
2022-12-26T18:30:02.510Z,4.50
2022-12-26T18:32:32.941Z,4.40
2022-12-26T18:35:01.638Z,4.40
2022-12-26T18:37:31.282Z,4.40
2022-12-26T18:39:59.252Z,4.40
2022-12-26T18:42:27.337Z,4.40
2022-12-26T18:44:55.760Z,4.40
2022-12-26T18:47:25.400Z,4.40
2022-12-26T18:49:53.367Z,4.50
2022-12-26T18:52:21.354Z,4.50
2022-12-26T18:54:49.294Z,4.40
2022-12-26T18:57:20.576Z,4.40
2022-12-26T18:59:49.034Z,4.40
2022-12-26T19:02:18.444Z,4.30
2022-12-26T19:04:48.921Z,4.40
2022-12-26T19:07:18.246Z,4.30
2022-12-26T19:09:46.820Z,4.30
2022-12-26T19:12:17.566Z,4.30
2022-12-26T19:14:46.624Z,4.30
2022-12-26T19:17:14.692Z,4.40
2022-12-26T19:19:42.814Z,4.30
2022-12-26T19:22:12.658Z,4.30
2022-12-26T19:24:40.636Z,4.20
2022-12-26T19:27:08.610Z,4.20
2022-12-26T19:29:36.944Z,4.30
2022-12-26T19:32:05.467Z,4.20
2022-12-26T19:34:33.667Z,4.10
2022-12-26T19:37:01.795Z,4.10
2022-12-26T19:39:31.153Z,4.10
2022-12-26T19:41:59.139Z,4.10
2022-12-26T19:44:29.928Z,4.20
2022-12-26T19:47:12.369Z,4.10
2022-12-26T19:49:41.023Z,4.10
2022-12-26T19:52:09.973Z,4.00
2022-12-26T19:54:39.713Z,4.00
2022-12-26T19:57:07.795Z,4.00
2022-12-26T19:59:35.898Z,4.00
2022-12-26T20:02:04.718Z,4.00
2022-12-26T20:04:32.900Z,4.10
2022-12-26T20:07:01.462Z,4.10
2022-12-26T20:09:29.867Z,4.00
2022-12-26T20:11:59.467Z,4.00
2022-12-26T20:14:28.684Z,4.10
2022-12-26T20:17:06.834Z,4.00
2022-12-26T20:19:36.403Z,4.00
2022-12-26T20:22:05.458Z,4.00
2022-12-26T20:24:33.721Z,4.10
2022-12-26T20:27:03.799Z,4.00
2022-12-26T20:29:31.932Z,4.20
2022-12-26T20:32:00.109Z,4.10
2022-12-26T20:34:28.231Z,4.10
2022-12-26T20:36:56.269Z,4.10
2022-12-26T20:39:25.521Z,4.20
2022-12-26T20:41:53.564Z,4.10
2022-12-26T20:44:24.375Z,4.10
2022-12-26T20:46:52.365Z,4.10
2022-12-26T20:49:20.324Z,4.10
2022-12-26T20:51:48.360Z,4.10
2022-12-26T20:54:17.070Z,4.20
2022-12-26T20:56:45.666Z,4.10
2022-12-26T20:59:13.677Z,4.20
2022-12-26T21:01:43.666Z,4.10
2022-12-26T21:04:18.375Z,4.10
2022-12-26T21:06:47.391Z,4.10
2022-12-26T21:09:15.672Z,4.20
2022-12-26T21:11:45.320Z,4.30
2022-12-26T21:14:16.190Z,4.30
2022-12-26T21:16:47.316Z,4.40
2022-12-26T21:19:16.952Z,4.50
2022-12-26T21:21:48.182Z,4.50
2022-12-26T21:24:18.514Z,4.60
2022-12-26T21:26:47.142Z,4.60
2022-12-26T21:29:17.264Z,4.60
2022-12-26T21:31:46.913Z,4.60
2022-12-26T21:34:16.494Z,4.50
2022-12-26T21:37:06.134Z,4.50
2022-12-26T21:39:36.024Z,4.50
2022-12-26T21:42:05.150Z,4.50
2022-12-26T21:44:33.263Z,4.40
2022-12-26T21:47:02.926Z,4.40
2022-12-26T21:49:30.985Z,4.40
2022-12-26T21:51:58.925Z,4.40
2022-12-26T21:54:48.559Z,4.30
2022-12-26T21:57:17.595Z,4.30
2022-12-26T22:00:01.469Z,4.30
2022-12-26T22:02:50.805Z,4.20
2022-12-26T22:05:20.754Z,4.30
2022-12-26T22:07:49.240Z,4.30
2022-12-26T22:10:33.848Z,4.20
2022-12-26T22:13:02.679Z,4.20
2022-12-26T22:15:48.266Z,4.30
2022-12-26T22:18:17.864Z,4.20
2022-12-26T22:20:46.328Z,4.20
2022-12-26T22:23:14.699Z,4.20
2022-12-26T22:25:42.720Z,4.10
2022-12-26T22:28:10.925Z,4.20
2022-12-26T22:30:38.933Z,4.10
2022-12-26T22:33:06.937Z,4.10
2022-12-26T22:35:36.224Z,4.10
2022-12-26T22:38:04.262Z,4.10
2022-12-26T22:40:32.299Z,4.10
2022-12-26T22:43:00.474Z,4.10
2022-12-26T22:45:28.660Z,4.10
2022-12-26T22:47:56.660Z,4.00
2022-12-26T22:50:24.760Z,4.10
2022-12-26T22:52:54.098Z,4.10
2022-12-26T22:55:22.078Z,4.10
2022-12-26T22:57:52.705Z,4.10
2022-12-26T23:00:21.370Z,4.10
2022-12-26T23:02:49.837Z,4.10
2022-12-26T23:05:18.596Z,4.10
2022-12-26T23:07:47.178Z,4.10
2022-12-26T23:10:22.019Z,4.10
2022-12-26T23:12:51.116Z,4.10
2022-12-26T23:15:21.661Z,4.10
2022-12-26T23:18:13.375Z,4.00
2022-12-26T23:20:59.780Z,4.10
2022-12-26T23:23:28.304Z,4.00
2022-12-26T23:26:00.238Z,4.10
2022-12-26T23:28:42.162Z,4.00
2022-12-26T23:31:10.214Z,4.10
2022-12-26T23:33:38.216Z,4.10
2022-12-26T23:36:06.636Z,4.10
2022-12-26T23:38:37.231Z,4.00
2022-12-26T23:41:06.716Z,3.90
2022-12-26T23:43:34.764Z,4.00
2022-12-26T23:46:02.847Z,4.00
2022-12-26T23:48:30.829Z,4.00
2022-12-26T23:51:03.231Z,4.00
2022-12-26T23:53:31.643Z,4.00
2022-12-26T23:55:59.658Z,4.10
2022-12-26T23:58:29.045Z,4.00
